Etusivu
METAR-TAF:

METAR-TAF

Lentoasemat :

Yapin kansainvälinen lentoasema

Yap, Mikronesia

Leveyspiiri: 09-29N, Pituuspiiri: 138-05E, korkeus merenpinnasta: 28 m

Tämänhetkinen sää

Tämä raportti tehtiin 1 tunti ja 35 minuuttia sitten, kello 17.50 UTC
Tuuli 3 kn eri suunnista
Lämpötila 28°C
Kosteus 84%
Ilmanpaine 1008 hPa
Näkyvyys: 19.3 km
Muutamia pilviä 1600 ft:n korkeudessa
Hajonneita pilviä 30000 ft:n korkeudessa

METAR: PTYA 221750Z VRB03KT 12SM FEW016 BKN300 28/25 A2978 RMK SLP086 8/101 T02750251 10283 20275 57014

Aika: 05:25 (19:25 UTC)

Sääennuste

Tämä raportti tehtiin 2 tuntia ja 5 minuuttia sitten, kello 17.20 UTC
Ennuste voimassa 22. päivästä klo 18 UTC - 23. päivään klo 18 UTC
Tuuli 7 kn idästä
Näkyvyys: 10 km
Muutamia pilviä 1600 ft:n korkeudessa
Hajanaisia pilviä 4000 ft:n korkeudessa
sadekuuroja näköpiirissä

TAF: PTYA 221720Z 2218/2318 08007KT P6SM VCSH FEW016 SCT040

Säähavainnot ja -ennusteet yli 4000 lentoasemalta (METAR- ja TAF-raportit).

Käytössä olevat sääasemat on merkitty karttaan keltaisilla ja punaisilla pisteillä.

Aseta hiiri pisteen päälle nähdäksesi sääaseman nimen.

Klikkaa sitten nähdäksesi säähavainnot ja -ennusteet.

Kartan vaihtaminen: klikkaa mustalla rastilla varustettuja vihreitä pisteitä, niin voit zoomata sisään; viivalla varustettua vihreää pistettä, niin voit zoomata ulos tai vihreitä nuolia, niin pääset viereisille kartoille.


METAR-TAF: